KHIE/HIE METAR and TAF weather

Enter ICAO airport designator
Station Type Date Time Source
KHIE METAR 2020/07/08 00:52 UTC NOAA

KHIE 080052Z AUTO VRB04KT 10SM CLR 23/16 A3003 RMK AO2 SLP165 T02330156


Station Type Date Time Source
KHIE Decoded METAR 2020/07/08 00:52 UTC NOAA

MT WASHINGTON REGIONAL AIRPORT , NH, United States (KHIE) 44-22N 71-33W 318M
Jul 07, 2020 - 08:52 PM EDT / 2020.07.08 0052 UTC
Wind: Variable at 5 MPH (4 KT):0
Visibility: 10 mile(s):0
Sky conditions: clear
Temperature: 73.9 F (23.3 C)
Dew Point: 60.1 F (15.6 C)
Relative Humidity: 61%
Pressure (altimeter): 30.03 in. Hg (1016 hPa)
ob: KHIE 080052Z AUTO VRB04KT 10SM CLR 23/16 A3003 RMK AO2 SLP165 T02330156
cycle: 1

Station Type Date Time Source
KHIE TAF 2020/07/07 18:48 UTC NOAA

TAF KHIE 071746Z 0718/0818 VRB04KT P6SM SCT250
FM080600 VRB03KT 6SM -SHRA BR BKN015
FM081400 25005KT P6SM BKN050

Example: see airport list